sensor_id;sensor_type;location;lat;lon;timestamp;pressure;altitude;pressure_sealevel;temperature;humidity
23899;BME280;20544;50.018;20.010;2023-01-28T00:00:55;99232.94;;;-0.86;100.00
23899;BME280;20544;50.018;20.010;2023-01-28T00:04:12;99225.77;;;-0.83;100.00
23899;BME280;20544;50.018;20.010;2023-01-28T00:07:28;99225.23;;;-0.88;100.00
23899;BME280;20544;50.018;20.010;2023-01-28T00:10:45;99228.05;;;-0.91;100.00
23899;BME280;20544;50.018;20.010;2023-01-28T00:14:02;99226.16;;;-0.89;100.00
23899;BME280;20544;50.018;20.010;2023-01-28T00:17:19;99226.16;;;-0.89;100.00
23899;BME280;20544;50.018;20.010;2023-01-28T00:20:35;99222.91;;;-0.92;100.00
23899;BME280;20544;50.018;20.010;2023-01-28T00:23:54;99225.34;;;-0.89;100.00
23899;BME280;20544;50.018;20.010;2023-01-28T00:27:10;99225.98;;;-0.86;100.00
23899;BME280;20544;50.018;20.010;2023-01-28T00:30:28;99235.16;;;-0.80;100.00
23899;BME280;20544;50.018;20.010;2023-01-28T00:33:47;99236.02;;;-0.79;100.00
23899;BME280;20544;50.018;20.010;2023-01-28T00:37:04;99240.47;;;-0.82;100.00
23899;BME280;20544;50.018;20.010;2023-01-28T00:40:20;99235.77;;;-0.89;100.00
23899;BME280;20544;50.018;20.010;2023-01-28T00:43:36;99238.27;;;-0.88;100.00
23899;BME280;20544;50.018;20.010;2023-01-28T00:46:53;99237.44;;;-0.88;100.00
23899;BME280;20544;50.018;20.010;2023-01-28T00:50:10;99236.41;;;-0.86;100.00
23899;BME280;20544;50.018;20.010;2023-01-28T00:53:28;99236.90;;;-0.93;100.00
23899;BME280;20544;50.018;20.010;2023-01-28T00:56:47;99242.39;;;-0.98;100.00
23899;BME280;20544;50.018;20.010;2023-01-28T01:00:04;99238.39;;;-1.04;100.00
23899;BME280;20544;50.018;20.010;2023-01-28T01:03:21;99233.83;;;-1.00;100.00
23899;BME280;20544;50.018;20.010;2023-01-28T01:06:40;99237.18;;;-0.98;100.00
23899;BME280;20544;50.018;20.010;2023-01-28T01:09:56;99232.62;;;-0.94;100.00
23899;BME280;20544;50.018;20.010;2023-01-28T01:13:13;99238.65;;;-0.94;100.00
23899;BME280;20544;50.018;20.010;2023-01-28T01:16:31;99238.65;;;-0.94;100.00
23899;BME280;20544;50.018;20.010;2023-01-28T01:19:48;99236.97;;;-0.95;100.00
23899;BME280;20544;50.018;20.010;2023-01-28T01:23:06;99236.97;;;-0.95;100.00
23899;BME280;20544;50.018;20.010;2023-01-28T01:26:25;99249.06;;;-0.94;100.00
23899;BME280;20544;50.018;20.010;2023-01-28T01:29:41;99243.21;;;-0.98;100.00
23899;BME280;20544;50.018;20.010;2023-01-28T01:32:58;99239.78;;;-0.98;100.00
23899;BME280;20544;50.018;20.010;2023-01-28T01:36:16;99244.99;;;-0.98;100.00
23899;BME280;20544;50.018;20.010;2023-01-28T01:39:35;99251.23;;;-1.01;100.00
23899;BME280;20544;50.018;20.010;2023-01-28T01:42:51;99251.23;;;-1.01;100.00
23899;BME280;20544;50.018;20.010;2023-01-28T01:46:08;99257.09;;;-0.97;100.00
23899;BME280;20544;50.018;20.010;2023-01-28T01:49:25;99260.52;;;-0.96;100.00
23899;BME280;20544;50.018;20.010;2023-01-28T01:52:43;99253.63;;;-0.98;100.00
23899;BME280;20544;50.018;20.010;2023-01-28T01:56:03;99254.55;;;-0.99;100.00
23899;BME280;20544;50.018;20.010;2023-01-28T01:59:24;99253.84;;;-1.01;100.00
23899;BME280;20544;50.018;20.010;2023-01-28T02:02:43;99249.45;;;-1.00;100.00
23899;BME280;20544;50.018;20.010;2023-01-28T02:06:01;99258.02;;;-0.98;100.00
23899;BME280;20544;50.018;20.010;2023-01-28T02:09:28;99257.91;;;-0.96;100.00
23899;BME280;20544;50.018;20.010;2023-01-28T02:12:48;99260.52;;;-0.96;100.00
23899;BME280;20544;50.018;20.010;2023-01-28T02:16:08;99263.22;;;-0.98;100.00
23899;BME280;20544;50.018;20.010;2023-01-28T02:19:28;99261.00;;;-1.04;100.00
23899;BME280;20544;50.018;20.010;2023-01-28T02:27:02;99272.24;;;-1.04;100.00
23899;BME280;20544;50.018;20.010;2023-01-28T02:30:30;99269.36;;;-0.99;100.00
23899;BME280;20544;50.018;20.010;2023-01-28T02:33:54;99269.25;;;-0.98;100.00
23899;BME280;20544;50.018;20.010;2023-01-28T02:37:16;99264.16;;;-0.99;100.00
23899;BME280;20544;50.018;20.010;2023-01-28T02:40:37;99257.37;;;-1.02;100.00
23899;BME280;20544;50.018;20.010;2023-01-28T02:44:05;99265.18;;;-1.02;100.00
23899;BME280;20544;50.018;20.010;2023-01-28T02:47:21;99268.61;;;-1.01;100.00
23899;BME280;20544;50.018;20.010;2023-01-28T02:50:59;99264.53;;;-1.05;100.00
23899;BME280;20544;50.018;20.010;2023-01-28T02:54:17;99268.98;;;-1.07;100.00
23899;BME280;20544;50.018;20.010;2023-01-28T02:57:37;99268.27;;;-1.09;100.00
23899;BME280;20544;50.018;20.010;2023-01-28T03:00:59;99267.72;;;-1.15;100.00
23899;BME280;20544;50.018;20.010;2023-01-28T03:04:22;99274.41;;;-1.10;100.00
23899;BME280;20544;50.018;20.010;2023-01-28T03:07:41;99269.20;;;-1.10;100.00
23899;BME280;20544;50.018;20.010;2023-01-28T03:10:59;99272.63;;;-1.10;100.00
23899;BME280;20544;50.018;20.010;2023-01-28T03:14:31;99272.45;;;-1.07;100.00
23899;BME280;20544;50.018;20.010;2023-01-28T03:18:06;99270.02;;;-1.10;100.00
23899;BME280;20544;50.018;20.010;2023-01-28T03:21:41;99268.34;;;-1.11;100.00
23899;BME280;20544;50.018;20.010;2023-01-28T03:25:14;99263.23;;;-1.12;100.00
23899;BME280;20544;50.018;20.010;2023-01-28T03:28:48;99262.52;;;-1.15;100.00
23899;BME280;20544;50.018;20.010;2023-01-28T03:32:20;99264.37;;;-1.17;100.00
23899;BME280;20544;50.018;20.010;2023-01-28T03:35:51;99259.27;;;-1.18;100.00
23899;BME280;20544;50.018;20.010;2023-01-28T03:39:24;99260.63;;;-1.12;100.00
23899;BME280;20544;50.018;20.010;2023-01-28T03:42:43;99263.23;;;-1.12;100.00
23899;BME280;20544;50.018;20.010;2023-01-28T03:46:03;99263.23;;;-1.12;100.00
23899;BME280;20544;50.018;20.010;2023-01-28T03:49:20;99267.63;;;-1.13;100.00
23899;BME280;20544;50.018;20.010;2023-01-28T03:52:36;99265.02;;;-1.13;100.00
23899;BME280;20544;50.018;20.010;2023-01-28T03:56:06;99265.84;;;-1.12;100.00
23899;BME280;20544;50.018;20.010;2023-01-28T03:59:24;99267.23;;;-1.07;100.00
23899;BME280;20544;50.018;20.010;2023-01-28T04:02:41;99276.80;;;-1.07;100.00
23899;BME280;20544;50.018;20.010;2023-01-28T04:06:03;99278.86;;;-1.12;100.00
23899;BME280;20544;50.018;20.010;2023-01-28T04:09:29;99274.30;;;-1.09;100.00
23899;BME280;20544;50.018;20.010;2023-01-28T04:12:47;99275.23;;;-1.10;100.00
23899;BME280;20544;50.018;20.010;2023-01-28T04:16:05;99271.91;;;-1.12;100.00
23899;BME280;20544;50.018;20.010;2023-01-28T04:19:22;99282.22;;;-1.10;100.00
23899;BME280;20544;50.018;20.010;2023-01-28T04:22:41;99276.91;;;-1.09;100.00
23899;BME280;20544;50.018;20.010;2023-01-28T04:25:59;99281.36;;;-1.11;100.00
23899;BME280;20544;50.018;20.010;2023-01-28T04:29:17;99287.53;;;-1.12;100.00
23899;BME280;20544;50.018;20.010;2023-01-28T04:32:35;99284.99;;;-1.14;100.00
23899;BME280;20544;50.018;20.010;2023-01-28T04:36:06;99279.78;;;-1.14;100.00
23899;BME280;20544;50.018;20.010;2023-01-28T04:39:24;99281.46;;;-1.12;100.00
23899;BME280;20544;50.018;20.010;2023-01-28T04:43:07;99289.38;;;-1.14;100.00
23899;BME280;20544;50.018;20.010;2023-01-28T04:46:38;99291.05;;;-1.13;100.00
23899;BME280;20544;50.018;20.010;2023-01-28T04:49:56;99290.20;;;-1.14;100.00
23899;BME280;20544;50.018;20.010;2023-01-28T04:53:14;99284.99;;;-1.14;100.00
23899;BME280;20544;50.018;20.010;2023-01-28T04:56:32;99296.27;;;-1.13;100.00
23899;BME280;20544;50.018;20.010;2023-01-28T04:59:51;99298.97;;;-1.15;100.00
23899;BME280;20544;50.018;20.010;2023-01-28T05:03:08;99290.02;;;-1.10;100.00
23899;BME280;20544;50.018;20.010;2023-01-28T05:06:24;99294.48;;;-1.12;100.00
23899;BME280;20544;50.018;20.010;2023-01-28T05:09:48;99297.73;;;-1.09;100.00
23899;BME280;20544;50.018;20.010;2023-01-28T05:13:05;99299.31;;;-1.06;100.00
23899;BME280;20544;50.018;20.010;2023-01-28T05:16:21;99298.28;;;-1.04;100.00
23899;BME280;20544;50.018;20.010;2023-01-28T05:19:37;99306.09;;;-1.04;100.00
23899;BME280;20544;50.018;20.010;2023-01-28T05:22:56;99317.37;;;-1.03;100.00
23899;BME280;20544;50.018;20.010;2023-01-28T05:26:32;99322.38;;;-1.00;100.00
23899;BME280;20544;50.018;20.010;2023-01-28T05:29:48;99320.14;;;-1.06;100.00
23899;BME280;20544;50.018;20.010;2023-01-28T05:33:06;99322.65;;;-1.05;100.00
23899;BME280;20544;50.018;20.010;2023-01-28T05:36:23;99320.25;;;-1.08;100.00
23899;BME280;20544;50.018;20.010;2023-01-28T05:39:40;99319.22;;;-1.05;100.00
23899;BME280;20544;50.018;20.010;2023-01-28T05:42:57;99324.26;;;-1.02;100.00
23899;BME280;20544;50.018;20.010;2023-01-28T05:46:22;99317.64;;;-1.08;100.00
23899;BME280;20544;50.018;20.010;2023-01-28T05:49:40;99315.31;;;-1.12;100.00
23899;BME280;20544;50.018;20.010;2023-01-28T05:53:08;99329.84;;;-1.08;100.00
23899;BME280;20544;50.018;20.010;2023-01-28T05:56:25;99333.27;;;-1.08;100.00
23899;BME280;20544;50.018;20.010;2023-01-28T05:59:43;99335.12;;;-1.10;100.00
23899;BME280;20544;50.018;20.010;2023-01-28T06:02:59;99338.64;;;-1.11;100.00
23899;BME280;20544;50.018;20.010;2023-01-28T06:06:16;99339.67;;;-1.14;100.00
23899;BME280;20544;50.018;20.010;2023-01-28T06:09:36;99346.86;;;-1.17;100.00
23899;BME280;20544;50.018;20.010;2023-01-28T06:12:53;99354.67;;;-1.17;100.00
23899;BME280;20544;50.018;20.010;2023-01-28T06:16:17;99353.81;;;-1.18;100.00
23899;BME280;20544;50.018;20.010;2023-01-28T06:19:42;99357.08;;;-1.14;100.00
23899;BME280;20544;50.018;20.010;2023-01-28T06:22:58;99361.09;;;-1.08;100.00
23899;BME280;20544;50.018;20.010;2023-01-28T06:26:14;99376.71;;;-1.08;100.00
23899;BME280;20544;50.018;20.010;2023-01-28T06:29:31;99374.83;;;-1.06;100.00
23899;BME280;20544;50.018;20.010;2023-01-28T06:32:52;99380.80;;;-1.04;100.00
23899;BME280;20544;50.018;20.010;2023-01-28T06:36:10;99381.06;;;-1.09;100.00
23899;BME280;20544;50.018;20.010;2023-01-28T06:39:26;99381.06;;;-1.09;100.00
23899;BME280;20544;50.018;20.010;2023-01-28T06:42:43;99390.66;;;-1.09;100.00
23899;BME280;20544;50.018;20.010;2023-01-28T06:46:00;99388.05;;;-1.09;100.00
23899;BME280;20544;50.018;20.010;2023-01-28T06:49:16;99394.45;;;-1.15;100.00
23899;BME280;20544;50.018;20.010;2023-01-28T06:52:33;99399.56;;;-1.14;100.00
23899;BME280;20544;50.018;20.010;2023-01-28T06:55:51;99396.78;;;-1.10;100.00
23899;BME280;20544;50.018;20.010;2023-01-28T06:59:08;99394.19;;;-1.10;100.00
23899;BME280;20544;50.018;20.010;2023-01-28T07:02:24;99405.63;;;-1.13;100.00
23899;BME280;20544;50.018;20.010;2023-01-28T07:05:41;99410.83;;;-1.13;100.00
23899;BME280;20544;50.018;20.010;2023-01-28T07:08:57;99415.11;;;-1.12;100.00
23899;BME280;20544;50.018;20.010;2023-01-28T07:12:13;99415.02;;;-1.10;100.00
23899;BME280;20544;50.018;20.010;2023-01-28T07:15:30;99410.47;;;-1.07;100.00
23899;BME280;20544;50.018;20.010;2023-01-28T07:18:46;99412.31;;;-1.09;100.00
23899;BME280;20544;50.018;20.010;2023-01-28T07:22:02;99417.42;;;-1.07;100.00
23899;BME280;20544;50.018;20.010;2023-01-28T07:25:19;99414.55;;;-1.03;100.00
23899;BME280;20544;50.018;20.010;2023-01-28T07:28:35;99430.38;;;-1.06;100.00
23899;BME280;20544;50.018;20.010;2023-01-28T07:31:51;99436.97;;;-1.00;100.00
23899;BME280;20544;50.018;20.010;2023-01-28T07:35:09;99432.22;;;-1.08;100.00
23899;BME280;20544;50.018;20.010;2023-01-28T07:38:26;99440.13;;;-1.09;100.00
23899;BME280;20544;50.018;20.010;2023-01-28T07:41:44;99438.45;;;-1.10;100.00
23899;BME280;20544;50.018;20.010;2023-01-28T07:45:12;99429.16;;;-1.15;100.00
23899;BME280;20544;50.018;20.010;2023-01-28T07:48:29;99430.80;;;-1.14;100.00
23899;BME280;20544;50.018;20.010;2023-01-28T07:51:45;99430.08;;;-1.16;100.00
23899;BME280;20544;50.018;20.010;2023-01-28T07:55:05;99439.64;;;-1.16;100.00
23899;BME280;20544;50.018;20.010;2023-01-28T07:58:23;99439.58;;;-1.15;100.00
23899;BME280;20544;50.018;20.010;2023-01-28T08:01:41;99439.58;;;-1.15;100.00
23899;BME280;20544;50.018;20.010;2023-01-28T08:04:57;99441.88;;;-1.10;100.00
23899;BME280;20544;50.018;20.010;2023-01-28T08:08:14;99436.87;;;-1.13;100.00
23899;BME280;20544;50.018;20.010;2023-01-28T08:11:30;99429.88;;;-1.12;100.00
23899;BME280;20544;50.018;20.010;2023-01-28T08:14:46;99440.20;;;-1.11;100.00
23899;BME280;20544;50.018;20.010;2023-01-28T08:18:05;99453.31;;;-1.12;100.00
23899;BME280;20544;50.018;20.010;2023-01-28T08:21:23;99447.28;;;-1.13;100.00
23899;BME280;20544;50.018;20.010;2023-01-28T08:24:39;99456.02;;;-1.14;100.00
23899;BME280;20544;50.018;20.010;2023-01-28T08:27:55;99456.12;;;-1.16;100.00
23899;BME280;20544;50.018;20.010;2023-01-28T08:31:11;99456.28;;;-1.19;100.00
23899;BME280;20544;50.018;20.010;2023-01-28T08:34:28;99454.60;;;-1.20;100.00
23899;BME280;20544;50.018;20.010;2023-01-28T08:37:45;99465.88;;;-1.19;100.00
23899;BME280;20544;50.018;20.010;2023-01-28T08:41:02;99458.06;;;-1.19;100.00
23899;BME280;20544;50.018;20.010;2023-01-28T08:44:18;99468.28;;;-1.16;100.00
23899;BME280;20544;50.018;20.010;2023-01-28T08:47:35;99462.81;;;-1.11;100.00
23899;BME280;20544;50.018;20.010;2023-01-28T08:50:53;99467.36;;;-1.15;100.00
23899;BME280;20544;50.018;20.010;2023-01-28T08:54:13;99474.15;;;-1.12;100.00
23899;BME280;20544;50.018;20.010;2023-01-28T08:57:39;99464.95;;;-1.18;100.00
23899;BME280;20544;50.018;20.010;2023-01-28T09:00:56;99467.45;;;-1.17;100.00
23899;BME280;20544;50.018;20.010;2023-01-28T09:04:12;99478.53;;;-1.13;100.00
23899;BME280;20544;50.018;20.010;2023-01-28T09:07:29;99483.91;;;-1.16;100.00
23899;BME280;20544;50.018;20.010;2023-01-28T09:10:45;99483.74;;;-1.13;100.00
23899;BME280;20544;50.018;20.010;2023-01-28T09:14:01;99479.26;;;-1.11;100.00
23899;BME280;20544;50.018;20.010;2023-01-28T09:17:17;99479.26;;;-1.11;100.00
23899;BME280;20544;50.018;20.010;2023-01-28T09:20:34;99475.47;;;-1.05;100.00
23899;BME280;20544;50.018;20.010;2023-01-28T09:23:54;99477.71;;;-0.99;100.00
23899;BME280;20544;50.018;20.010;2023-01-28T09:27:11;99476.78;;;-0.98;100.00
23899;BME280;20544;50.018;20.010;2023-01-28T09:30:27;99473.06;;;-0.94;100.00
23899;BME280;20544;50.018;20.010;2023-01-28T09:33:46;99472.97;;;-0.92;100.00
23899;BME280;20544;50.018;20.010;2023-01-28T09:37:05;99483.31;;;-0.91;100.00
23899;BME280;20544;50.018;20.010;2023-01-28T09:40:28;99471.77;;;-0.87;100.00
23899;BME280;20544;50.018;20.010;2023-01-28T09:44:11;99476.23;;;-0.89;100.00
23899;BME280;20544;50.018;20.010;2023-01-28T09:47:36;99473.45;;;-0.86;100.00
23899;BME280;20544;50.018;20.010;2023-01-28T09:50:55;99478.77;;;-0.87;100.00
23899;BME280;20544;50.018;20.010;2023-01-28T09:54:17;99476.23;;;-0.89;100.00
23899;BME280;20544;50.018;20.010;2023-01-28T09:57:44;99476.16;;;-0.87;100.00
23899;BME280;20544;50.018;20.010;2023-01-28T10:01:09;99472.53;;;-0.85;100.00
23899;BME280;20544;50.018;20.010;2023-01-28T10:04:38;99468.70;;;-0.79;100.00
23899;BME280;20544;50.018;20.010;2023-01-28T10:08:04;99470.28;;;-0.76;100.00
23899;BME280;20544;50.018;20.010;2023-01-28T10:11:28;99467.51;;;-0.73;100.00
23899;BME280;20544;50.018;20.010;2023-01-28T10:14:54;99463.39;;;-0.77;100.00
23899;BME280;20544;50.018;20.010;2023-01-28T10:18:15;99467.51;;;-0.73;100.00
23899;BME280;20544;50.018;20.010;2023-01-28T10:21:38;99463.22;;;-0.74;100.00
23899;BME280;20544;50.018;20.010;2023-01-28T10:24:57;99461.38;;;-0.72;100.00
23899;BME280;20544;50.018;20.010;2023-01-28T10:28:19;99464.80;;;-0.72;100.00
23899;BME280;20544;50.018;20.010;2023-01-28T10:31:40;99462.09;;;-0.70;100.00
23899;BME280;20544;50.018;20.010;2023-01-28T10:35:01;99468.06;;;-0.68;100.00
23899;BME280;20544;50.018;20.010;2023-01-28T10:38:20;99462.75;;;-0.67;100.00
23899;BME280;20544;50.018;20.010;2023-01-28T10:41:38;99455.59;;;-0.63;100.00
23899;BME280;20544;50.018;20.010;2023-01-28T10:44:59;99457.37;;;-0.63;100.00
23899;BME280;20544;50.018;20.010;2023-01-28T10:48:22;99461.82;;;-0.66;100.00
23899;BME280;20544;50.018;20.010;2023-01-28T10:51:43;99451.20;;;-0.62;100.00
23899;BME280;20544;50.018;20.010;2023-01-28T10:55:05;99455.48;;;-0.61;100.00
23899;BME280;20544;50.018;20.010;2023-01-28T10:58:30;99455.59;;;-0.63;100.00
23899;BME280;20544;50.018;20.010;2023-01-28T11:01:49;99455.78;;;-0.66;100.00
23899;BME280;20544;50.018;20.010;2023-01-28T11:05:15;99458.29;;;-0.64;100.00
23899;BME280;20544;50.018;20.010;2023-01-28T11:11:51;99451.20;;;-0.62;100.00
23899;BME280;20544;50.018;20.010;2023-01-28T11:15:17;99453.73;;;-0.61;100.00
23899;BME280;20544;50.018;20.010;2023-01-28T11:18:37;99454.45;;;-0.59;100.00
23899;BME280;20544;50.018;20.010;2023-01-28T11:21:58;99457.92;;;-0.58;100.00
23899;BME280;20544;50.018;20.010;2023-01-28T11:25:26;99458.74;;;-0.58;100.00
23899;BME280;20544;50.018;20.010;2023-01-28T11:28:43;99449.24;;;-0.59;100.00
23899;BME280;20544;50.018;20.010;2023-01-28T11:32:01;99448.97;;;-0.54;100.00
23899;BME280;20544;50.018;20.010;2023-01-28T11:35:27;99439.20;;;-0.51;100.00
23899;BME280;20544;50.018;20.010;2023-01-28T11:38:53;99441.25;;;-0.56;100.00
23899;BME280;20544;50.018;20.010;2023-01-28T11:42:16;99433.98;;;-0.51;100.00
23899;BME280;20544;50.018;20.010;2023-01-28T11:45:37;99443.92;;;-0.43;100.00
23899;BME280;20544;50.018;20.010;2023-01-28T11:49:12;99436.75;;;-0.39;100.00
23899;BME280;20544;50.018;20.010;2023-01-28T11:53:15;99441.04;;;-0.38;100.00
23899;BME280;20544;50.018;20.010;2023-01-28T11:57:08;99434.90;;;-0.37;100.00
23899;BME280;20544;50.018;20.010;2023-01-28T12:00:36;99437.41;;;-0.36;100.00
23899;BME280;20544;50.018;20.010;2023-01-28T12:04:16;99440.11;;;-0.37;100.00
23899;BME280;20544;50.018;20.010;2023-01-28T12:07:41;99430.41;;;-0.35;100.00
23899;BME280;20544;50.018;20.010;2023-01-28T12:11:08;99432.09;;;-0.34;100.00
23899;BME280;20544;50.018;20.010;2023-01-28T12:14:38;99428.45;;;-0.31;100.00
23899;BME280;20544;50.018;20.010;2023-01-28T12:18:19;99428.55;;;-0.33;100.00
23899;BME280;20544;50.018;20.010;2023-01-28T12:21:48;99429.38;;;-0.33;100.00
23899;BME280;20544;50.018;20.010;2023-01-28T12:25:31;99434.52;;;-0.31;100.00
23899;BME280;20544;50.018;20.010;2023-01-28T12:29:07;99429.30;;;-0.31;100.00
23899;BME280;20544;50.018;20.010;2023-01-28T12:32:38;99434.52;;;-0.31;100.00
23899;BME280;20544;50.018;20.010;2023-01-28T12:36:04;99432.09;;;-0.34;100.00
23899;BME280;20544;50.018;20.010;2023-01-28T12:39:30;99439.19;;;-0.36;100.00
23899;BME280;20544;50.018;20.010;2023-01-28T12:42:52;99437.41;;;-0.36;100.00
23899;BME280;20544;50.018;20.010;2023-01-28T12:46:24;99432.30;;;-0.37;100.00
23899;BME280;20544;50.018;20.010;2023-01-28T12:49:47;99434.15;;;-0.39;100.00
23899;BME280;20544;50.018;20.010;2023-01-28T12:53:12;99434.90;;;-0.37;100.00
23899;BME280;20544;50.018;20.010;2023-01-28T12:56:36;99439.36;;;-0.39;100.00
23899;BME280;20544;50.018;20.010;2023-01-28T13:00:01;99444.13;;;-0.46;100.00
23899;BME280;20544;50.018;20.010;2023-01-28T13:03:24;99449.14;;;-0.43;100.00
23899;BME280;20544;50.018;20.010;2023-01-28T13:06:43;99444.78;;;-0.42;100.00
23899;BME280;20544;50.018;20.010;2023-01-28T13:10:03;99432.19;;;-0.36;100.00
23899;BME280;20544;50.018;20.010;2023-01-28T13:13:26;99442.23;;;-0.29;100.00
23899;BME280;20544;50.018;20.010;2023-01-28T13:16:44;99454.83;;;-0.36;100.00
23899;BME280;20544;50.018;20.010;2023-01-28T13:20:01;99454.34;;;-0.28;100.00
23899;BME280;20544;50.018;20.010;2023-01-28T13:23:37;99462.61;;;-0.22;100.00
23899;BME280;20544;50.018;20.010;2023-01-28T13:26:56;99464.19;;;-0.19;100.00
23899;BME280;20544;50.018;20.010;2023-01-28T13:30:23;99455.72;;;-0.23;100.00
23899;BME280;20544;50.018;20.010;2023-01-28T13:33:42;99458.14;;;-0.20;100.00
23899;BME280;20544;50.018;20.010;2023-01-28T13:37:06;99457.94;;;-0.17;100.00
23899;BME280;20544;50.018;20.010;2023-01-28T13:40:28;99459.89;;;-0.20;100.00
23899;BME280;20544;50.018;20.010;2023-01-28T13:43:45;99463.53;;;-0.23;100.00
23899;BME280;20544;50.018;20.010;2023-01-28T13:47:13;99465.22;;;-0.22;100.00
23899;BME280;20544;50.018;20.010;2023-01-28T13:50:40;99467.00;;;-0.22;100.00
23899;BME280;20544;50.018;20.010;2023-01-28T13:54:01;99474.44;;;-0.16;100.00
23899;BME280;20544;50.018;20.010;2023-01-28T13:57:42;99470.97;;;-0.17;100.00
23899;BME280;20544;50.018;20.010;2023-01-28T14:01:31;99472.66;;;-0.15;100.00
23899;BME280;20544;50.018;20.010;2023-01-28T14:09:36;99471.19;;;-0.20;100.00
23899;BME280;20544;50.018;20.010;2023-01-28T14:13:25;99476.19;;;-0.17;100.00
23899;BME280;20544;50.018;20.010;2023-01-28T14:16:55;99466.52;;;-0.14;100.00
23899;BME280;20544;50.018;20.010;2023-01-28T14:20:21;99476.40;;;-0.20;100.00
23899;BME280;20544;50.018;20.010;2023-01-28T14:23:48;99477.22;;;-0.19;100.00
23899;BME280;20544;50.018;20.010;2023-01-28T14:27:10;99480.86;;;-0.22;100.00
23899;BME280;20544;50.018;20.010;2023-01-28T14:30:32;99492.05;;;-0.20;100.00
23899;BME280;20544;50.018;20.010;2023-01-28T14:33:51;99488.52;;;-0.19;100.00
23899;BME280;20544;50.018;20.010;2023-01-28T14:37:10;99487.48;;;-0.16;100.00
23899;BME280;20544;50.018;20.010;2023-01-28T14:40:29;99495.20;;;-0.14;100.00
23899;BME280;20544;50.018;20.010;2023-01-28T14:43:47;99487.38;;;-0.14;100.00
23899;BME280;20544;50.018;20.010;2023-01-28T14:47:16;99492.48;;;-0.13;100.00
23899;BME280;20544;50.018;20.010;2023-01-28T14:51:14;99495.09;;;-0.13;100.00
23899;BME280;20544;50.018;20.010;2023-01-28T14:54:56;99495.95;;;-0.12;100.00
23899;BME280;20544;50.018;20.010;2023-01-28T14:58:19;99499.17;;;-0.09;100.00
23899;BME280;20544;50.018;20.010;2023-01-28T15:01:43;99500.86;;;-0.08;100.00
23899;BME280;20544;50.018;20.010;2023-01-28T15:05:10;99506.93;;;-0.07;100.00
23899;BME280;20544;50.018;20.010;2023-01-28T15:08:30;99514.00;;;-0.09;100.00
23899;BME280;20544;50.018;20.010;2023-01-28T15:11:51;99506.77;;;-0.19;100.00
23899;BME280;20544;50.018;20.010;2023-01-28T15:15:16;99513.84;;;-0.21;100.00
23899;BME280;20544;50.018;20.010;2023-01-28T15:18:36;99521.45;;;-0.18;100.00
23899;BME280;20544;50.018;20.010;2023-01-28T15:21:56;99521.01;;;-0.24;100.00
23899;BME280;20544;50.018;20.010;2023-01-28T15:25:19;99521.94;;;-0.25;100.00
23899;BME280;20544;50.018;20.010;2023-01-28T15:28:37;99521.01;;;-0.24;100.00
23899;BME280;20544;50.018;20.010;2023-01-28T15:31:55;99521.76;;;-0.37;100.00
23899;BME280;20544;50.018;20.010;2023-01-28T15:35:14;99522.52;;;-0.35;100.00
23899;BME280;20544;50.018;20.010;2023-01-28T15:38:30;99526.50;;;-0.29;100.00
23899;BME280;20544;50.018;20.010;2023-01-28T15:41:51;99533.94;;;-0.23;100.00
23899;BME280;20544;50.018;20.010;2023-01-28T15:45:17;99529.10;;;-0.29;100.00
23899;BME280;20544;50.018;20.010;2023-01-28T15:48:36;99532.29;;;-0.38;100.00
23899;BME280;20544;50.018;20.010;2023-01-28T15:51:57;99538.88;;;-0.33;100.00
23899;BME280;20544;50.018;20.010;2023-01-28T15:55:38;99538.81;;;-0.31;100.00
23899;BME280;20544;50.018;20.010;2023-01-28T15:58:55;99541.59;;;-0.34;100.00
23899;BME280;20544;50.018;20.010;2023-01-28T16:02:24;99540.56;;;-0.31;100.00
23899;BME280;20544;50.018;20.010;2023-01-28T16:05:42;99539.73;;;-0.32;100.00
23899;BME280;20544;50.018;20.010;2023-01-28T16:09:16;99537.40;;;-0.37;100.00
23899;BME280;20544;50.018;20.010;2023-01-28T16:12:34;99535.00;;;-0.40;100.00
23899;BME280;20544;50.018;20.010;2023-01-28T16:15:52;99536.64;;;-0.39;100.00
23899;BME280;20544;50.018;20.010;2023-01-28T16:19:18;99546.70;;;-0.33;100.00
23899;BME280;20544;50.018;20.010;2023-01-28T16:22:38;99543.47;;;-0.36;100.00
23899;BME280;20544;50.018;20.010;2023-01-28T16:26:03;99536.64;;;-0.39;100.00
23899;BME280;20544;50.018;20.010;2023-01-28T16:29:22;99547.66;;;-0.34;100.00
23899;BME280;20544;50.018;20.010;2023-01-28T16:32:40;99545.32;;;-0.38;100.00
23899;BME280;20544;50.018;20.010;2023-01-28T16:35:57;99547.66;;;-0.34;100.00
23899;BME280;20544;50.018;20.010;2023-01-28T16:39:17;99557.13;;;-0.33;100.00
23899;BME280;20544;50.018;20.010;2023-01-28T16:42:34;99546.53;;;-0.29;100.00
23899;BME280;20544;50.018;20.010;2023-01-28T16:45:52;99555.28;;;-0.30;100.00
23899;BME280;20544;50.018;20.010;2023-01-28T16:49:08;99555.38;;;-0.32;100.00
23899;BME280;20544;50.018;20.010;2023-01-28T16:52:26;99560.59;;;-0.32;100.00
23899;BME280;20544;50.018;20.010;2023-01-28T16:55:42;99562.34;;;-0.33;100.00
23899;BME280;20544;50.018;20.010;2023-01-28T16:58:59;99567.11;;;-0.39;100.00
23899;BME280;20544;50.018;20.010;2023-01-28T17:02:17;99561.79;;;-0.38;100.00
23899;BME280;20544;50.018;20.010;2023-01-28T17:05:33;99569.55;;;-0.36;100.00
23899;BME280;20544;50.018;20.010;2023-01-28T17:08:52;99566.94;;;-0.36;100.00
23899;BME280;20544;50.018;20.010;2023-01-28T17:12:09;99565.61;;;-0.29;100.00
23899;BME280;20544;50.018;20.010;2023-01-28T17:15:26;99567.94;;;-0.24;100.00
23899;BME280;20544;50.018;20.010;2023-01-28T17:18:42;99566.27;;;-0.25;100.00
23899;BME280;20544;50.018;20.010;2023-01-28T17:22:01;99560.22;;;-0.26;100.00
23899;BME280;20544;50.018;20.010;2023-01-28T17:25:18;99555.94;;;-0.27;100.00
23899;BME280;20544;50.018;20.010;2023-01-28T17:28:34;99562.63;;;-0.23;100.00
23899;BME280;20544;50.018;20.010;2023-01-28T17:31:51;99565.06;;;-0.20;100.00